Time;durP1;ratioP1;P1;durP2;ratioP2;P2;SDS_P1;SDS_P2;PMS_P1;PMS_P2;Temp;Humidity;BMP_temperature;BMP_pressure;BME280_temperature;BME280_humidity;BME280_pressure;Samples;Min_cycle;Max_cycle;Signal;HPM_P1;HPM_P2
2023/03/29 00:01:46;;;;;;;;;;;13.70;78.20;;;;;;5093605;28;19908;-85
2023/03/29 00:04:12;;;;;;;;;;;13.70;78.30;;;;;;5077057;28;20293;-85
2023/03/29 00:06:38;;;;;;;;;;;13.70;78.20;;;;;;5095158;28;19908;-85
2023/03/29 00:09:08;;;;;;;;;;;13.70;78.20;;;;;;5097694;28;19922;-85
2023/03/29 00:11:34;;;;;;;;;;;13.70;78.20;;;;;;5079225;28;20190;-85
2023/03/29 00:13:59;;;;;;;;;;;13.70;78.20;;;;;;5078746;28;20271;-85
2023/03/29 00:16:25;;;;;;;;;;;13.70;78.20;;;;;;5078857;28;20349;-85
2023/03/29 00:18:51;;;;;;;;;;;13.60;78.10;;;;;;5079219;28;20232;-85
2023/03/29 00:21:18;;;;;;;;;;;13.60;78.10;;;;;;5062677;28;20125;-85
2023/03/29 00:23:44;;;;;;;;;;;13.60;78.10;;;;;;5096909;28;19920;-85
2023/03/29 00:26:10;;;;;;;;;;;13.60;78.10;;;;;;5095982;28;20118;-87
2023/03/29 00:28:36;;;;;;;;;;;13.60;78.00;;;;;;5077624;28;19919;-87
2023/03/29 00:31:06;;;;;;;;;;;13.60;78.10;;;;;;5077087;28;19908;-87
2023/03/29 00:33:31;;;;;;;;;;;13.60;77.90;;;;;;5077146;28;20039;-87
2023/03/29 00:35:57;;;;;;;;;;;13.60;78.50;;;;;;5077219;28;19908;-87
2023/03/29 00:38:22;;;;;;;;;;;13.60;77.80;;;;;;5078669;28;20255;-87
2023/03/29 00:40:48;;;;;;;;;;;13.60;77.80;;;;;;5078673;28;19973;-87
2023/03/29 00:43:14;;;;;;;;;;;13.60;77.80;;;;;;5079341;28;19912;-87
2023/03/29 00:45:40;;;;;;;;;;;13.60;77.70;;;;;;5078020;28;19962;-87
2023/03/29 00:48:07;;;;;;;;;;;13.60;77.70;;;;;;5094858;28;20274;-87
2023/03/29 00:50:35;;;;;;;;;;;13.60;77.80;;;;;;5078829;28;19983;-87
2023/03/29 00:53:02;;;;;;;;;;;13.60;77.90;;;;;;5079398;28;20266;-87
2023/03/29 00:55:31;;;;;;;;;;;13.60;77.90;;;;;;5079861;28;19916;-87
2023/03/29 00:57:57;;;;;;;;;;;13.50;77.80;;;;;;5078471;28;19986;-87
2023/03/29 01:00:27;;;;;;;;;;;13.50;77.80;;;;;;5079518;28;19908;-88
2023/03/29 01:02:54;;;;;;;;;;;13.50;77.80;;;;;;5079283;28;19919;-87
2023/03/29 01:05:28;;;;;;;;;;;13.50;77.70;;;;;;5078758;28;19952;-87
2023/03/29 01:08:18;;;;;;;;;;;13.50;77.80;;;;;;5307417;22;19932;-88
2023/03/29 01:13:54;;;;;;;;;;;13.50;77.50;;;;;;5072443;28;19915;-88
2023/03/29 01:16:39;;;;;;;;;;;13.50;77.40;;;;;;5088844;28;20001;-88
2023/03/29 01:19:09;;;;;;;;;;;13.50;77.40;;;;;;5087710;28;19912;-88
2023/03/29 01:21:53;;;;;;;;;;;13.50;77.30;;;;;;5088797;28;19919;-88
2023/03/29 01:27:51;;;;;;;;;;;13.50;77.20;;;;;;5029337;28;19920;-88
2023/03/29 01:30:26;;;;;;;;;;;13.50;77.10;;;;;;5014745;28;20044;-88
2023/03/29 01:32:55;;;;;;;;;;;13.50;77.10;;;;;;5050728;28;19908;-88
2023/03/29 01:36:00;;;;;;;;;;;13.50;77.00;;;;;;5088743;28;20003;-88
2023/03/29 01:38:28;;;;;;;;;;;13.50;76.90;;;;;;5043118;28;19908;-90
2023/03/29 01:41:15;;;;;;;;;;;13.40;76.70;;;;;;5088487;28;19913;-88
2023/03/29 01:47:06;;;;;;;;;;;13.40;76.60;;;;;;5072642;28;20038;-91
2023/03/29 01:49:51;;;;;;;;;;;13.40;76.50;;;;;;5074574;28;20167;-91
2023/03/29 01:55:08;;;;;;;;;;;13.40;76.40;;;;;;5073069;28;19970;-91
2023/03/29 01:57:34;;;;;;;;;;;13.40;76.40;;;;;;5087110;28;19908;-91
2023/03/29 02:03:01;;;;;;;;;;;13.40;76.30;;;;;;5072622;28;19958;-91
2023/03/29 02:05:29;;;;;;;;;;;13.40;76.30;;;;;;5090181;28;19931;-91
2023/03/29 02:08:04;;;;;;;;;;;13.30;76.10;;;;;;5090558;28;19909;-90
2023/03/29 02:10:42;;;;;;;;;;;13.40;76.10;;;;;;5072549;28;19917;-91
2023/03/29 02:13:23;;;;;;;;;;;13.30;76.00;;;;;;5055811;28;19912;-91
2023/03/29 02:16:31;;;;;;;;;;;13.30;76.10;;;;;;5056873;28;19912;-91
2023/03/29 02:19:15;;;;;;;;;;;13.30;76.10;;;;;;4959876;28;19920;-90
2023/03/29 02:22:06;;;;;;;;;;;13.30;76.10;;;;;;4974831;28;19949;-91
2023/03/29 02:27:20;;;;;;;;;;;13.30;76.10;;;;;;4977595;28;19946;-89
2023/03/29 02:33:04;;;;;;;;;;;13.30;76.10;;;;;;4976809;28;19917;-88
2023/03/29 02:38:43;;;;;;;;;;;13.30;76.10;;;;;;4937517;29;19911;-88
2023/03/29 02:41:09;;;;;;;;;;;13.30;76.10;;;;;;4922282;29;19969;-88
2023/03/29 02:44:03;;;;;;;;;;;13.30;76.00;;;;;;4963548;28;19922;-89
2023/03/29 02:50:00;;;;;;;;;;;13.30;76.10;;;;;;4958325;29;20371;-88
2023/03/29 02:52:38;;;;;;;;;;;13.30;76.00;;;;;;4940798;29;19910;-89
2023/03/29 02:55:13;;;;;;;;;;;13.30;76.10;;;;;;4940009;29;19911;-88
2023/03/29 02:57:48;;;;;;;;;;;13.30;76.00;;;;;;4920585;29;19911;-88
2023/03/29 03:00:25;;;;;;;;;;;13.30;76.00;;;;;;4919467;29;19911;-88
2023/03/29 03:02:51;;;;;;;;;;;13.30;76.00;;;;;;4943615;28;19954;-89
2023/03/29 03:05:16;;;;;;;;;;;13.30;75.90;;;;;;4958212;28;19976;-88
2023/03/29 03:07:51;;;;;;;;;;;13.30;75.90;;;;;;4958424;28;20000;-89
2023/03/29 03:13:35;;;;;;;;;;;13.30;75.90;;;;;;4898299;29;19918;-88
2023/03/29 03:16:01;;;;;;;;;;;13.30;75.90;;;;;;4860225;29;20202;-88
2023/03/29 03:21:32;;;;;;;;;;;13.30;75.90;;;;;;4911586;29;19919;-88
2023/03/29 03:23:58;;;;;;;;;;;13.30;75.90;;;;;;4948644;28;19922;-88
2023/03/29 03:29:34;;;;;;;;;;;13.30;75.90;;;;;;5064706;28;19919;-88
2023/03/29 03:32:15;;;;;;;;;;;13.30;75.80;;;;;;5090366;28;19919;-88
2023/03/29 03:34:58;;;;;;;;;;;13.30;75.90;;;;;;5082896;28;19978;-88
2023/03/29 03:37:24;;;;;;;;;;;13.30;75.80;;;;;;5057816;28;20172;-88
2023/03/29 03:39:55;;;;;;;;;;;13.30;75.80;;;;;;5056181;28;19916;-88
2023/03/29 03:42:24;;;;;;;;;;;13.30;75.80;;;;;;5058099;28;19987;-88
2023/03/29 03:45:11;;;;;;;;;;;13.30;75.70;;;;;;5050981;28;19920;-88
2023/03/29 03:47:42;;;;;;;;;;;13.30;75.70;;;;;;5056199;28;20270;-88
2023/03/29 03:50:28;;;;;;;;;;;13.30;75.70;;;;;;5057674;28;19937;-88
2023/03/29 03:52:57;;;;;;;;;;;13.30;75.70;;;;;;5072838;28;19928;-88
2023/03/29 03:55:22;;;;;;;;;;;13.30;75.70;;;;;;5072061;28;20058;-88
2023/03/29 03:57:48;;;;;;;;;;;13.30;75.70;;;;;;5056200;28;20585;-89
2023/03/29 04:00:20;;;;;;;;;;;13.30;75.60;;;;;;5055414;28;19917;-89
2023/03/29 04:02:55;;;;;;;;;;;13.30;75.50;;;;;;5031189;28;19986;-88
2023/03/29 04:05:23;;;;;;;;;;;13.30;75.50;;;;;;5031905;28;20004;-88
2023/03/29 04:07:53;;;;;;;;;;;13.30;75.50;;;;;;5032004;28;19938;-88
2023/03/29 04:10:21;;;;;;;;;;;13.30;75.50;;;;;;5032940;28;20128;-88
2023/03/29 04:13:23;;;;;;;;;;;13.30;75.50;;;;;;5033140;28;20015;-89
2023/03/29 04:15:52;;;;;;;;;;;13.30;75.50;;;;;;5050025;28;19976;-88
2023/03/29 04:18:45;;;;;;;;;;;13.30;75.40;;;;;;5032493;28;20329;-89
2023/03/29 04:21:16;;;;;;;;;;;13.30;75.40;;;;;;5031242;28;20405;-88
2023/03/29 04:26:32;;;;;;;;;;;13.30;75.40;;;;;;5032254;28;19919;-89
2023/03/29 04:29:07;;;;;;;;;;;13.30;75.50;;;;;;5031729;28;19975;-89
2023/03/29 04:31:36;;;;;;;;;;;13.30;75.50;;;;;;5030402;28;19940;-89
2023/03/29 04:34:01;;;;;;;;;;;13.30;75.50;;;;;;5046946;28;19973;-88
2023/03/29 04:36:30;;;;;;;;;;;13.20;75.30;;;;;;5087855;28;19912;-89
2023/03/29 04:39:03;;;;;;;;;;;13.30;75.40;;;;;;5084706;28;19918;-88
2023/03/29 04:41:28;;;;;;;;;;;13.30;75.40;;;;;;5067672;28;19923;-88
2023/03/29 04:43:54;;;;;;;;;;;13.30;75.40;;;;;;5084773;28;20432;-89
2023/03/29 04:46:20;;;;;;;;;;;13.20;75.40;;;;;;5083461;28;20005;-89
2023/03/29 04:48:49;;;;;;;;;;;13.20;75.50;;;;;;5069134;28;19985;-89
2023/03/29 04:51:46;;;;;;;;;;;13.20;75.50;;;;;;5070566;28;20232;-88
2023/03/29 04:54:15;;;;;;;;;;;13.30;75.70;;;;;;5053658;28;19916;-88
2023/03/29 04:56:40;;;;;;;;;;;13.20;75.70;;;;;;5089231;28;20098;-88
2023/03/29 04:59:18;;;;;;;;;;;13.20;75.70;;;;;;5088004;28;19973;-88
2023/03/29 05:02:06;;;;;;;;;;;13.20;75.80;;;;;;5088493;28;19908;-89
2023/03/29 05:04:31;;;;;;;;;;;13.20;75.90;;;;;;5070726;28;19939;-89
2023/03/29 05:07:06;;;;;;;;;;;13.20;76.00;;;;;;5071462;28;19908;-89
2023/03/29 05:09:31;;;;;;;;;;;13.20;76.00;;;;;;5089369;28;19908;-89
2023/03/29 05:11:57;;;;;;;;;;;13.20;76.20;;;;;;5088294;28;19915;-89
2023/03/29 05:14:22;;;;;;;;;;;13.20;76.20;;;;;;5094253;28;19963;-89
2023/03/29 05:16:51;;;;;;;;;;;13.20;76.20;;;;;;5070105;28;19913;-89
2023/03/29 05:19:20;;;;;;;;;;;13.30;76.40;;;;;;5085520;28;20359;-89
2023/03/29 05:21:46;;;;;;;;;;;13.20;76.40;;;;;;5053227;28;20333;-89
2023/03/29 05:24:12;;;;;;;;;;;13.20;76.70;;;;;;5086664;28;19919;-89
2023/03/29 05:26:41;;;;;;;;;;;13.30;77.10;;;;;;5085056;28;20194;-89
2023/03/29 05:29:11;;;;;;;;;;;13.20;77.30;;;;;;5086603;28;19908;-89
2023/03/29 05:31:45;;;;;;;;;;;13.30;77.60;;;;;;5085433;28;20332;-89
2023/03/29 05:34:12;;;;;;;;;;;13.30;77.90;;;;;;5085621;28;19915;-90
2023/03/29 05:36:41;;;;;;;;;;;13.30;78.00;;;;;;5081996;28;19973;-89
2023/03/29 05:39:07;;;;;;;;;;;13.30;78.20;;;;;;5082396;28;19909;-89
2023/03/29 05:41:48;;;;;;;;;;;13.30;78.30;;;;;;5075915;28;19970;-89
2023/03/29 05:44:13;;;;;;;;;;;13.30;79.10;;;;;;5083246;28;19912;-89
2023/03/29 05:46:39;;;;;;;;;;;13.30;78.70;;;;;;5066207;28;20106;-89
2023/03/29 05:49:07;;;;;;;;;;;13.30;78.60;;;;;;5082245;28;20144;-89
2023/03/29 05:51:34;;;;;;;;;;;13.30;78.70;;;;;;5081389;28;19908;-89
2023/03/29 05:54:00;;;;;;;;;;;13.30;78.70;;;;;;5080053;28;20108;-89
2023/03/29 05:56:28;;;;;;;;;;;13.30;78.80;;;;;;5080621;28;19986;-89
2023/03/29 05:58:57;;;;;;;;;;;13.30;78.70;;;;;;5079573;28;20336;-89
2023/03/29 06:01:23;;;;;;;;;;;13.30;78.80;;;;;;5080063;28;19909;-88
2023/03/29 06:06:43;;;;;;;;;;;13.30;78.80;;;;;;5057066;28;19908;-89
2023/03/29 06:09:09;;;;;;;;;;;13.30;78.90;;;;;;5081369;28;19947;-89
2023/03/29 06:11:38;;;;;;;;;;;13.30;78.90;;;;;;5078976;28;20386;-89
2023/03/29 06:14:06;;;;;;;;;;;13.30;79.00;;;;;;5082032;28;19916;-89
2023/03/29 06:16:32;;;;;;;;;;;13.30;79.00;;;;;;5064058;28;19974;-90
2023/03/29 06:19:00;;;;;;;;;;;13.30;79.80;;;;;;5080179;28;19917;-90
2023/03/29 06:21:27;;;;;;;;;;;13.30;79.20;;;;;;5064948;28;19916;-89
2023/03/29 06:23:52;;;;;;;;;;;13.40;79.50;;;;;;5080752;28;19956;-90
2023/03/29 06:26:18;;;;;;;;;;;13.40;80.20;;;;;;5079987;28;20013;-89
2023/03/29 06:28:45;;;;;;;;;;;13.40;80.30;;;;;;5046842;28;19909;-90
2023/03/29 06:31:13;;;;;;;;;;;13.40;80.10;;;;;;5080832;28;20310;-89
2023/03/29 06:34:08;;;;;;;;;;;13.40;80.10;;;;;;5067045;28;19913;-89
2023/03/29 06:36:39;;;;;;;;;;;13.40;80.30;;;;;;5061540;28;19908;-89
2023/03/29 06:39:10;;;;;;;;;;;13.40;80.30;;;;;;5080893;28;19952;-90
2023/03/29 06:44:31;;;;;;;;;;;13.40;80.30;;;;;;5064171;28;19959;-89
2023/03/29 06:47:06;;;;;;;;;;;13.40;80.30;;;;;;5078772;28;19962;-89
2023/03/29 06:49:38;;;;;;;;;;;13.50;80.40;;;;;;5080702;28;19988;-90
2023/03/29 06:52:10;;;;;;;;;;;13.50;80.50;;;;;;5080912;28;19934;-90
2023/03/29 06:54:43;;;;;;;;;;;13.50;80.40;;;;;;5079957;28;19919;-89
2023/03/29 06:57:27;;;;;;;;;;;13.50;80.60;;;;;;5081083;28;20242;-89
2023/03/29 06:59:56;;;;;;;;;;;13.50;80.70;;;;;;5044739;28;19940;-89
2023/03/29 07:02:21;;;;;;;;;;;13.50;80.80;;;;;;5066125;28;20096;-89
2023/03/29 07:04:50;;;;;;;;;;;13.50;81.00;;;;;;5083424;28;19913;-89
2023/03/29 07:07:32;;;;;;;;;;;13.50;81.10;;;;;;5084095;28;20160;-88
2023/03/29 07:10:00;;;;;;;;;;;13.60;81.30;;;;;;5084145;28;20289;-89
2023/03/29 07:12:26;;;;;;;;;;;13.50;81.30;;;;;;5084070;28;19908;-89
2023/03/29 07:14:54;;;;;;;;;;;13.60;81.60;;;;;;5081905;28;19970;-89
2023/03/29 07:17:20;;;;;;;;;;;13.60;81.70;;;;;;5068151;28;19958;-89
2023/03/29 07:19:57;;;;;;;;;;;13.60;81.80;;;;;;5084146;28;19916;-89
2023/03/29 07:22:32;;;;;;;;;;;13.60;81.90;;;;;;5085174;28;20007;-89
2023/03/29 07:24:59;;;;;;;;;;;13.60;81.80;;;;;;5084270;28;20116;-89
2023/03/29 07:27:25;;;;;;;;;;;13.60;81.70;;;;;;5082520;28;19916;-89
2023/03/29 07:29:51;;;;;;;;;;;13.60;81.80;;;;;;5083895;28;19908;-88
2023/03/29 07:32:20;;;;;;;;;;;13.70;82.00;;;;;;5081770;28;19931;-90
2023/03/29 07:34:47;;;;;;;;;;;13.70;82.00;;;;;;5081494;28;20109;-89
2023/03/29 07:37:16;;;;;;;;;;;13.70;82.10;;;;;;5080625;28;19909;-89
2023/03/29 07:39:42;;;;;;;;;;;13.70;82.20;;;;;;5081948;28;19916;-89
2023/03/29 07:42:07;;;;;;;;;;;13.70;82.30;;;;;;5083610;28;19923;-89
2023/03/29 07:44:34;;;;;;;;;;;13.70;82.30;;;;;;5084362;28;19923;-89
2023/03/29 07:47:04;;;;;;;;;;;13.70;82.60;;;;;;5085227;28;19936;-90
2023/03/29 07:49:32;;;;;;;;;;;13.70;82.80;;;;;;5084691;28;19912;-89
2023/03/29 07:51:58;;;;;;;;;;;13.80;83.10;;;;;;5085085;28;19908;-88
2023/03/29 07:54:24;;;;;;;;;;;13.80;83.10;;;;;;5085262;28;19973;-89
2023/03/29 07:56:53;;;;;;;;;;;13.80;83.10;;;;;;5066784;28;19908;-89
2023/03/29 07:59:18;;;;;;;;;;;13.80;83.20;;;;;;5082514;28;20166;-89
2023/03/29 08:01:47;;;;;;;;;;;13.80;83.20;;;;;;5083768;28;20052;-89
2023/03/29 08:04:12;;;;;;;;;;;13.80;83.20;;;;;;5083599;28;19913;-89
2023/03/29 08:06:44;;;;;;;;;;;13.80;83.20;;;;;;5084392;28;19917;-89
2023/03/29 08:09:16;;;;;;;;;;;13.80;83.00;;;;;;5084328;28;20019;-89
2023/03/29 08:11:47;;;;;;;;;;;13.80;83.10;;;;;;5084393;28;20057;-89
2023/03/29 08:14:13;;;;;;;;;;;13.90;83.10;;;;;;5081843;28;19908;-89
2023/03/29 08:16:42;;;;;;;;;;;13.90;83.00;;;;;;5084298;28;19916;-88
2023/03/29 08:19:13;;;;;;;;;;;14.00;82.80;;;;;;5082565;28;20185;-89
2023/03/29 08:21:42;;;;;;;;;;;14.00;82.60;;;;;;5081679;28;20053;-89
2023/03/29 08:24:08;;;;;;;;;;;14.00;82.30;;;;;;5065733;28;19923;-89
2023/03/29 08:26:38;;;;;;;;;;;14.00;82.10;;;;;;5066266;28;19916;-89
2023/03/29 08:29:09;;;;;;;;;;;14.10;82.00;;;;;;5082473;28;19977;-89
2023/03/29 08:31:37;;;;;;;;;;;14.10;81.80;;;;;;5067602;28;19915;-89
2023/03/29 08:34:03;;;;;;;;;;;14.20;81.40;;;;;;5083109;28;19909;-88
2023/03/29 08:36:31;;;;;;;;;;;14.20;81.20;;;;;;5067172;28;19916;-90
2023/03/29 08:38:57;;;;;;;;;;;14.20;81.00;;;;;;5082957;28;20184;-89
2023/03/29 08:41:41;;;;;;;;;;;14.20;81.00;;;;;;5085196;28;20293;-89
2023/03/29 08:44:08;;;;;;;;;;;14.20;81.00;;;;;;5084010;28;20358;-89
2023/03/29 08:46:41;;;;;;;;;;;14.20;81.00;;;;;;5086043;28;20107;-89
2023/03/29 08:49:13;;;;;;;;;;;14.20;80.90;;;;;;5068804;28;19916;-89
2023/03/29 08:51:44;;;;;;;;;;;14.20;80.90;;;;;;5087835;28;20259;-89
2023/03/29 08:54:45;;;;;;;;;;;14.20;80.90;;;;;;5089613;28;20297;-89
2023/03/29 08:57:22;;;;;;;;;;;14.20;81.00;;;;;;5052364;28;19908;-89
2023/03/29 08:59:51;;;;;;;;;;;14.20;81.10;;;;;;5068794;28;20274;-89
2023/03/29 09:02:31;;;;;;;;;;;14.20;81.10;;;;;;5082073;28;19908;-89
2023/03/29 09:05:05;;;;;;;;;;;14.20;81.30;;;;;;5083661;28;20012;-89
2023/03/29 09:07:33;;;;;;;;;;;14.20;81.20;;;;;;5082978;28;19972;-89
2023/03/29 09:10:11;;;;;;;;;;;14.30;81.20;;;;;;5049060;28;19952;-89
2023/03/29 09:12:43;;;;;;;;;;;14.30;81.10;;;;;;5080020;28;19909;-89
2023/03/29 09:15:10;;;;;;;;;;;14.30;81.10;;;;;;5066522;28;19917;-89
2023/03/29 09:20:39;;;;;;;;;;;14.30;81.40;;;;;;5062416;28;19916;-89
2023/03/29 09:23:21;;;;;;;;;;;14.40;81.70;;;;;;5060629;28;19952;-89
2023/03/29 09:25:46;;;;;;;;;;;14.40;81.70;;;;;;5078484;28;20127;-89
2023/03/29 09:28:28;;;;;;;;;;;14.50;81.50;;;;;;5064166;28;20320;-89
2023/03/29 09:31:05;;;;;;;;;;;14.50;81.30;;;;;;5081638;28;19969;-89
2023/03/29 09:33:41;;;;;;;;;;;14.50;81.90;;;;;;5083436;28;19908;-89
2023/03/29 09:36:25;;;;;;;;;;;14.60;81.20;;;;;;5080916;28;19909;-89
2023/03/29 09:38:54;;;;;;;;;;;14.60;81.00;;;;;;5081525;28;19908;-89
2023/03/29 09:42:03;;;;;;;;;;;14.70;81.00;;;;;;5082806;28;20144;-89
2023/03/29 09:44:39;;;;;;;;;;;14.60;80.90;;;;;;4984153;28;19925;-89
2023/03/29 09:47:24;;;;;;;;;;;14.70;80.70;;;;;;4963805;28;19917;-89
2023/03/29 09:50:06;;;;;;;;;;;14.70;80.60;;;;;;4965047;28;19975;-89
2023/03/29 09:52:45;;;;;;;;;;;14.80;80.40;;;;;;4982641;28;19975;-89
2023/03/29 09:55:26;;;;;;;;;;;14.80;80.30;;;;;;5043575;28;19919;-89
2023/03/29 09:58:24;;;;;;;;;;;14.80;80.50;;;;;;5079839;28;19912;-89
2023/03/29 10:00:50;;;;;;;;;;;14.80;80.50;;;;;;5045327;28;19912;-90
2023/03/29 10:03:37;;;;;;;;;;;14.80;80.50;;;;;;5083136;28;20153;-89
2023/03/29 10:06:07;;;;;;;;;;;14.80;80.50;;;;;;5082766;28;19935;-89
2023/03/29 10:08:41;;;;;;;;;;;14.90;80.40;;;;;;5083206;28;19909;-89
2023/03/29 10:11:28;;;;;;;;;;;14.90;80.40;;;;;;5051334;28;19916;-89
2023/03/29 10:13:59;;;;;;;;;;;14.90;80.50;;;;;;5050602;28;19962;-90
2023/03/29 10:16:28;;;;;;;;;;;14.90;80.30;;;;;;5073648;28;20402;-89
2023/03/29 10:19:19;;;;;;;;;;;15.00;80.20;;;;;;5062305;28;19917;-89
2023/03/29 10:24:53;;;;;;;;;;;15.10;79.40;;;;;;5046335;28;20167;-89
2023/03/29 10:27:23;;;;;;;;;;;15.20;78.80;;;;;;5041711;28;19929;-89
2023/03/29 10:29:59;;;;;;;;;;;15.40;78.20;;;;;;5060777;28;19916;-89
2023/03/29 10:32:37;;;;;;;;;;;15.50;77.90;;;;;;5058844;28;19960;-89
2023/03/29 10:35:13;;;;;;;;;;;15.50;77.20;;;;;;5058249;28;19974;-89
2023/03/29 10:37:48;;;;;;;;;;;15.50;76.90;;;;;;5058528;28;19909;-88
2023/03/29 10:40:37;;;;;;;;;;;15.50;77.10;;;;;;5063896;28;20210;-89
2023/03/29 10:43:11;;;;;;;;;;;15.50;77.20;;;;;;5020869;28;19955;-89
2023/03/29 10:45:49;;;;;;;;;;;15.50;77.20;;;;;;5062685;28;20058;-89
2023/03/29 10:48:27;;;;;;;;;;;15.50;77.40;;;;;;5062155;28;19920;-90
2023/03/29 10:50:59;;;;;;;;;;;15.50;77.30;;;;;;5063122;28;19978;-89
2023/03/29 10:53:28;;;;;;;;;;;15.50;77.50;;;;;;5062300;28;19953;-89
2023/03/29 10:55:54;;;;;;;;;;;15.60;77.20;;;;;;5066285;28;19943;-89
2023/03/29 10:58:49;;;;;;;;;;;15.60;77.00;;;;;;5063741;28;20291;-89
2023/03/29 11:01:25;;;;;;;;;;;15.70;76.80;;;;;;4976350;28;19910;-89
2023/03/29 11:04:10;;;;;;;;;;;15.70;76.60;;;;;;5064610;28;19995;-90
2023/03/29 11:06:46;;;;;;;;;;;15.80;76.00;;;;;;5029664;28;19959;-89
2023/03/29 11:09:30;;;;;;;;;;;15.80;76.10;;;;;;5047319;28;19916;-89
2023/03/29 11:12:23;;;;;;;;;;;15.80;76.00;;;;;;5029129;28;19921;-90
2023/03/29 11:14:57;;;;;;;;;;;15.80;75.70;;;;;;5001734;28;19986;-90
2023/03/29 11:17:38;;;;;;;;;;;15.90;75.80;;;;;;5063346;28;19948;-90
2023/03/29 11:20:04;;;;;;;;;;;15.90;75.60;;;;;;5060350;28;20314;-89
2023/03/29 11:22:48;;;;;;;;;;;15.90;75.60;;;;;;5060323;28;20214;-89
2023/03/29 11:25:23;;;;;;;;;;;15.90;75.40;;;;;;4804039;28;6455811;-90
2023/03/29 11:28:12;;;;;;;;;;;15.90;75.30;;;;;;5062645;28;20006;-90
2023/03/29 11:30:45;;;;;;;;;;;15.90;75.40;;;;;;5000369;28;19917;-89
2023/03/29 11:33:29;;;;;;;;;;;16.00;75.40;;;;;;5060175;28;19970;-89
2023/03/29 11:36:03;;;;;;;;;;;16.00;75.50;;;;;;5024551;28;20286;-89
2023/03/29 11:38:40;;;;;;;;;;;16.20;75.10;;;;;;5060664;28;19967;-89
2023/03/29 11:41:24;;;;;;;;;;;16.30;74.20;;;;;;5045672;28;20007;-89
2023/03/29 11:43:53;;;;;;;;;;;16.30;73.90;;;;;;5058655;28;20164;-89
2023/03/29 11:46:37;;;;;;;;;;;16.40;73.50;;;;;;5057340;28;19908;-90
2023/03/29 11:49:18;;;;;;;;;;;16.50;73.40;;;;;;5058784;28;20072;-89
2023/03/29 11:51:55;;;;;;;;;;;16.60;73.20;;;;;;5060035;28;19944;-89
2023/03/29 11:54:27;;;;;;;;;;;16.60;72.70;;;;;;5059736;28;20344;-89
2023/03/29 11:56:58;;;;;;;;;;;16.60;72.70;;;;;;5061923;28;19927;-90
2023/03/29 11:59:33;;;;;;;;;;;16.60;72.60;;;;;;5062953;28;20206;-89
2023/03/29 12:02:21;;;;;;;;;;;16.50;72.80;;;;;;5061952;28;19913;-90
2023/03/29 12:04:54;;;;;;;;;;;16.60;73.00;;;;;;5032174;28;19913;-89
2023/03/29 12:07:27;;;;;;;;;;;16.60;72.70;;;;;;5052623;28;19971;-89
2023/03/29 12:10:00;;;;;;;;;;;16.70;72.70;;;;;;5063152;28;19912;-89
2023/03/29 12:12:29;;;;;;;;;;;16.70;72.70;;;;;;5043560;28;20274;-89
2023/03/29 12:15:06;;;;;;;;;;;16.80;72.80;;;;;;5060702;28;19909;-89
2023/03/29 12:17:57;;;;;;;;;;;16.80;72.20;;;;;;5052581;28;19967;-89
2023/03/29 12:20:30;;;;;;;;;;;16.90;72.60;;;;;;5057548;28;20154;-90
2023/03/29 12:22:55;;;;;;;;;;;16.90;72.50;;;;;;5057648;28;20274;-89
2023/03/29 12:25:51;;;;;;;;;;;16.90;72.50;;;;;;5061277;28;20154;-90
2023/03/29 12:28:32;;;;;;;;;;;16.90;72.50;;;;;;5023919;28;19923;-89
2023/03/29 12:31:04;;;;;;;;;;;16.90;72.40;;;;;;5059127;28;20190;-89
2023/03/29 12:33:59;;;;;;;;;;;16.90;72.90;;;;;;5058671;28;19977;-89
2023/03/29 12:36:49;;;;;;;;;;;16.90;73.30;;;;;;4963811;28;19910;-89
2023/03/29 12:39:18;;;;;;;;;;;16.80;73.50;;;;;;4965629;28;19910;-90
2023/03/29 12:41:47;;;;;;;;;;;16.90;73.70;;;;;;4964594;28;20126;-89
2023/03/29 12:44:20;;;;;;;;;;;16.80;74.00;;;;;;4965137;28;20146;-88
2023/03/29 12:46:50;;;;;;;;;;;16.80;74.20;;;;;;4981477;28;19909;-90
2023/03/29 12:49:34;;;;;;;;;;;16.80;74.60;;;;;;5064062;28;19909;-89
2023/03/29 12:52:02;;;;;;;;;;;16.80;74.50;;;;;;5068097;28;19913;-89
2023/03/29 12:54:30;;;;;;;;;;;16.80;74.80;;;;;;5067949;28;20077;-89
2023/03/29 12:57:01;;;;;;;;;;;16.80;75.10;;;;;;5063986;28;20287;-89
2023/03/29 12:59:26;;;;;;;;;;;16.80;74.90;;;;;;5056995;28;19908;-89
2023/03/29 13:01:56;;;;;;;;;;;16.80;75.10;;;;;;5058031;28;20263;-89
2023/03/29 13:04:48;;;;;;;;;;;16.80;75.20;;;;;;5060187;28;19913;-88
2023/03/29 13:07:26;;;;;;;;;;;16.70;75.50;;;;;;5058881;28;20046;-89
2023/03/29 13:10:04;;;;;;;;;;;16.70;75.80;;;;;;5058205;28;19994;-90
2023/03/29 13:12:33;;;;;;;;;;;16.60;76.00;;;;;;5026941;28;19995;-89
2023/03/29 13:14:59;;;;;;;;;;;16.60;76.20;;;;;;5061264;28;20020;-89
2023/03/29 13:17:50;;;;;;;;;;;16.60;76.50;;;;;;5062918;28;19916;-89
2023/03/29 13:20:36;;;;;;;;;;;16.70;76.60;;;;;;5061618;28;19919;-89
2023/03/29 13:23:04;;;;;;;;;;;16.70;76.80;;;;;;5047027;28;19909;-89
2023/03/29 13:26:06;;;;;;;;;;;16.70;77.00;;;;;;5061888;28;20031;-88
2023/03/29 13:28:53;;;;;;;;;;;16.80;76.70;;;;;;5045400;28;19932;-89
2023/03/29 13:31:38;;;;;;;;;;;16.90;76.30;;;;;;5043325;28;20065;-90
2023/03/29 13:34:04;;;;;;;;;;;16.90;75.70;;;;;;5025458;28;20295;-89
2023/03/29 13:36:32;;;;;;;;;;;16.90;76.10;;;;;;5057633;28;20119;-89
2023/03/29 13:39:01;;;;;;;;;;;17.00;76.30;;;;;;5058812;28;19916;-90
2023/03/29 13:41:49;;;;;;;;;;;17.00;76.00;;;;;;5059360;28;19967;-89
2023/03/29 13:44:21;;;;;;;;;;;17.10;75.40;;;;;;5058357;28;20073;-89
2023/03/29 13:49:32;;;;;;;;;;;17.00;75.80;;;;;;5045243;28;20020;-89
2023/03/29 13:52:04;;;;;;;;;;;17.00;76.20;;;;;;5059342;28;20089;-90
2023/03/29 13:54:48;;;;;;;;;;;17.00;76.20;;;;;;5058242;28;20062;-89
2023/03/29 13:57:23;;;;;;;;;;;17.00;76.10;;;;;;5022975;28;19912;-89
2023/03/29 14:00:05;;;;;;;;;;;17.00;76.20;;;;;;5059090;28;19909;-89
2023/03/29 14:02:54;;;;;;;;;;;16.90;76.40;;;;;;5059288;28;19908;-90
2023/03/29 14:05:24;;;;;;;;;;;16.90;76.70;;;;;;5058461;28;20195;-89
2023/03/29 14:08:31;;;;;;;;;;;16.90;76.90;;;;;;5058705;28;20041;-89
2023/03/29 14:11:20;;;;;;;;;;;16.90;76.90;;;;;;4998417;28;19936;-89
2023/03/29 14:13:46;;;;;;;;;;;16.90;76.90;;;;;;5062349;28;20447;-89
2023/03/29 14:16:18;;;;;;;;;;;17.00;76.80;;;;;;5047277;28;19920;-89
2023/03/29 14:18:50;;;;;;;;;;;17.00;76.70;;;;;;5063490;28;20017;-88
2023/03/29 14:21:15;;;;;;;;;;;17.00;76.60;;;;;;5061982;28;19936;-89
2023/03/29 14:23:45;;;;;;;;;;;17.00;76.70;;;;;;5060716;28;19970;-89
2023/03/29 14:26:18;;;;;;;;;;;17.00;76.60;;;;;;5063094;28;19947;-90
2023/03/29 14:28:44;;;;;;;;;;;17.00;76.70;;;;;;5063052;28;19909;-89
2023/03/29 14:31:38;;;;;;;;;;;17.00;76.60;;;;;;5062944;28;19908;-89
2023/03/29 14:34:22;;;;;;;;;;;17.00;76.60;;;;;;5061929;28;19908;-89
2023/03/29 14:36:52;;;;;;;;;;;17.00;76.60;;;;;;5062937;28;19910;-88
2023/03/29 14:39:20;;;;;;;;;;;17.00;76.70;;;;;;5064376;28;19917;-89
2023/03/29 14:41:52;;;;;;;;;;;17.00;76.70;;;;;;5047436;28;19999;-89
2023/03/29 14:44:19;;;;;;;;;;;17.00;76.70;;;;;;5064312;28;19913;-89
2023/03/29 14:46:48;;;;;;;;;;;17.00;76.70;;;;;;5065418;28;20144;-90
2023/03/29 14:49:20;;;;;;;;;;;17.00;76.80;;;;;;5066156;28;19989;-89
2023/03/29 14:51:46;;;;;;;;;;;17.00;77.00;;;;;;5031577;28;19909;-89
2023/03/29 14:54:22;;;;;;;;;;;17.00;77.30;;;;;;5065332;28;19973;-88
2023/03/29 14:56:49;;;;;;;;;;;17.00;77.60;;;;;;5048023;28;19909;-89
2023/03/29 14:59:21;;;;;;;;;;;17.00;77.90;;;;;;5064903;28;20076;-89
2023/03/29 15:01:46;;;;;;;;;;;17.00;78.20;;;;;;5064791;28;20185;-89
2023/03/29 15:04:12;;;;;;;;;;;16.90;78.40;;;;;;5062742;28;20171;-89
2023/03/29 15:06:40;;;;;;;;;;;16.90;78.80;;;;;;5060608;28;20099;-89
2023/03/29 15:09:07;;;;;;;;;;;16.90;79.20;;;;;;5068121;28;20191;-89
2023/03/29 15:11:32;;;;;;;;;;;16.90;79.40;;;;;;5048633;28;19919;-90
2023/03/29 15:14:03;;;;;;;;;;;17.00;79.60;;;;;;5064188;28;20010;-90
2023/03/29 15:16:34;;;;;;;;;;;17.00;80.40;;;;;;5063283;28;19981;-90
2023/03/29 15:19:03;;;;;;;;;;;17.00;79.80;;;;;;5062783;28;20033;-91
2023/03/29 15:21:36;;;;;;;;;;;17.00;79.80;;;;;;5060234;28;20265;-90
2023/03/29 15:24:21;;;;;;;;;;;17.00;79.80;;;;;;5049802;28;19974;-90
2023/03/29 15:27:00;;;;;;;;;;;17.00;79.80;;;;;;5049827;28;19917;-90
2023/03/29 15:29:32;;;;;;;;;;;17.00;79.70;;;;;;5063010;28;20077;-90
2023/03/29 15:31:58;;;;;;;;;;;17.00;79.60;;;;;;5062012;28;20206;-90
2023/03/29 15:34:34;;;;;;;;;;;17.00;79.60;;;;;;5062174;28;20183;-90
2023/03/29 15:37:03;;;;;;;;;;;17.00;79.60;;;;;;5062949;28;19970;-90
2023/03/29 15:39:28;;;;;;;;;;;17.00;79.70;;;;;;5064468;28;19915;-90
2023/03/29 15:41:58;;;;;;;;;;;17.00;80.00;;;;;;5064045;28;20213;-90
2023/03/29 15:44:28;;;;;;;;;;;16.90;80.00;;;;;;5065271;28;20104;-90
2023/03/29 15:47:02;;;;;;;;;;;16.90;80.00;;;;;;5065305;28;19951;-90